« 空撮 VNL917成田-新千歳 2019/5/25 sat | トップページ | 定点 富山空港 2019/6/29 sat »

2019/06/28

惜別 千歳飛行場 2019/5/26 sun

今般遠征のメインイベントの前に、朝風呂で身を清めて、最後のご挨拶に向かいました。

RJCC 252030Z 17008KT CAVOK 13/11 Q1013 RMK A2992

20190526_rjcc_00rjcj

北海道の夏の朝は早い 

20190526_rjcc_021hnger

新しい主が眠る格納庫

RJCC 252100Z 17007KT CAVOK 15/11 Q1013 RMK A2992

20190526_rjcc_01c201101

フジド事務所の向こうに見えてきました

20190526_rjcc_02c201101

20-1101 B747-47C

20190526_rjcc_03c201102

20-1102 B747-47C

20190526_rjcc_04c201101

2号機が6月17日 1号機が6月27日 日本を離れました。

20190526_rjcc_05c201101

1号機の貴賓室等は、小松の航空プラザで公開される予定。

20190526_rjcc_06c201102

是非貨物機となって、また来日してください。

20190526_rjcc_07n332fj

お隣で介添えしてた新海保機 N332FJ F2TH

20190526_rjcc_08c201101

これで見納めでした。新天地でも活躍を

|

« 空撮 VNL917成田-新千歳 2019/5/25 sat | トップページ | 定点 富山空港 2019/6/29 sat »

千歳飛行場」カテゴリの記事

海上保安庁」カテゴリの記事

コメント

コメントを書く



(ウェブ上には掲載しません)


コメントは記事投稿者が公開するまで表示されません。



« 空撮 VNL917成田-新千歳 2019/5/25 sat | トップページ | 定点 富山空港 2019/6/29 sat »